sensor_id;sensor_type;location;lat;lon;timestamp;P1;durP1;ratioP1;P2;durP2;ratioP2
71413;SDS011;59226;53.212;5.728;2023-04-09T00:01:23;15.63;;;8.40;;
71413;SDS011;59226;53.212;5.728;2023-04-09T00:03:48;12.97;;;6.87;;
71413;SDS011;59226;53.212;5.728;2023-04-09T00:06:13;15.20;;;6.80;;
71413;SDS011;59226;53.212;5.728;2023-04-09T00:08:39;21.30;;;7.33;;
71413;SDS011;59226;53.212;5.728;2023-04-09T00:11:04;14.90;;;7.10;;
71413;SDS011;59226;53.212;5.728;2023-04-09T00:13:29;14.77;;;7.43;;
71413;SDS011;59226;53.212;5.728;2023-04-09T00:15:55;21.03;;;8.63;;
71413;SDS011;59226;53.212;5.728;2023-04-09T00:18:20;17.03;;;8.47;;
71413;SDS011;59226;53.212;5.728;2023-04-09T00:20:45;17.03;;;7.50;;
71413;SDS011;59226;53.212;5.728;2023-04-09T00:23:10;19.33;;;8.17;;
71413;SDS011;59226;53.212;5.728;2023-04-09T00:25:35;16.93;;;7.90;;
71413;SDS011;59226;53.212;5.728;2023-04-09T00:28:01;17.60;;;8.03;;
71413;SDS011;59226;53.212;5.728;2023-04-09T00:30:29;17.33;;;8.13;;
71413;SDS011;59226;53.212;5.728;2023-04-09T00:32:54;17.92;;;7.35;;
71413;SDS011;59226;53.212;5.728;2023-04-09T00:35:20;21.07;;;8.33;;
71413;SDS011;59226;53.212;5.728;2023-04-09T00:37:45;20.90;;;7.63;;
71413;SDS011;59226;53.212;5.728;2023-04-09T00:40:10;21.03;;;8.63;;
71413;SDS011;59226;53.212;5.728;2023-04-09T00:42:36;21.43;;;9.13;;
71413;SDS011;59226;53.212;5.728;2023-04-09T00:45:01;18.27;;;8.35;;
71413;SDS011;59226;53.212;5.728;2023-04-09T00:47:27;22.50;;;9.97;;
71413;SDS011;59226;53.212;5.728;2023-04-09T00:49:53;17.88;;;9.00;;
71413;SDS011;59226;53.212;5.728;2023-04-09T00:52:18;28.03;;;9.73;;
71413;SDS011;59226;53.212;5.728;2023-04-09T00:54:44;25.42;;;9.75;;
71413;SDS011;59226;53.212;5.728;2023-04-09T00:57:09;17.00;;;8.43;;
71413;SDS011;59226;53.212;5.728;2023-04-09T00:59:36;26.65;;;11.88;;
71413;SDS011;59226;53.212;5.728;2023-04-09T01:02:01;19.80;;;10.60;;
71413;SDS011;59226;53.212;5.728;2023-04-09T01:04:27;24.87;;;9.83;;
71413;SDS011;59226;53.212;5.728;2023-04-09T01:06:54;19.23;;;8.77;;
71413;SDS011;59226;53.212;5.728;2023-04-09T01:09:33;22.05;;;10.38;;
71413;SDS011;59226;53.212;5.728;2023-04-09T01:12:08;21.55;;;10.65;;
71413;SDS011;59226;53.212;5.728;2023-04-09T01:17:08;25.15;;;10.75;;
71413;SDS011;59226;53.212;5.728;2023-04-09T01:22:01;23.77;;;10.70;;
71413;SDS011;59226;53.212;5.728;2023-04-09T01:24:43;25.15;;;10.38;;
71413;SDS011;59226;53.212;5.728;2023-04-09T01:27:15;21.13;;;10.23;;
71413;SDS011;59226;53.212;5.728;2023-04-09T01:29:44;21.80;;;10.53;;
71413;SDS011;59226;53.212;5.728;2023-04-09T01:32:10;23.27;;;9.65;;
71413;SDS011;59226;53.212;5.728;2023-04-09T01:34:36;21.67;;;9.43;;
71413;SDS011;59226;53.212;5.728;2023-04-09T01:37:02;21.02;;;9.93;;
71413;SDS011;59226;53.212;5.728;2023-04-09T01:39:28;20.67;;;9.87;;
71413;SDS011;59226;53.212;5.728;2023-04-09T01:41:54;23.48;;;8.65;;
71413;SDS011;59226;53.212;5.728;2023-04-09T01:44:20;31.07;;;12.13;;
71413;SDS011;59226;53.212;5.728;2023-04-09T01:46:45;19.87;;;8.90;;
71413;SDS011;59226;53.212;5.728;2023-04-09T01:49:11;21.37;;;11.20;;
71413;SDS011;59226;53.212;5.728;2023-04-09T01:51:37;23.67;;;9.07;;
71413;SDS011;59226;53.212;5.728;2023-04-09T01:54:03;21.77;;;10.00;;
71413;SDS011;59226;53.212;5.728;2023-04-09T01:56:38;19.10;;;8.55;;
71413;SDS011;59226;53.212;5.728;2023-04-09T01:59:03;21.70;;;10.20;;
71413;SDS011;59226;53.212;5.728;2023-04-09T02:01:31;20.90;;;9.47;;
71413;SDS011;59226;53.212;5.728;2023-04-09T02:03:58;16.52;;;8.40;;
71413;SDS011;59226;53.212;5.728;2023-04-09T02:06:29;19.63;;;9.63;;
71413;SDS011;59226;53.212;5.728;2023-04-09T02:08:55;18.40;;;7.95;;
71413;SDS011;59226;53.212;5.728;2023-04-09T02:11:22;21.48;;;9.73;;
71413;SDS011;59226;53.212;5.728;2023-04-09T02:13:47;22.83;;;9.47;;
71413;SDS011;59226;53.212;5.728;2023-04-09T02:16:13;25.30;;;9.07;;
71413;SDS011;59226;53.212;5.728;2023-04-09T02:18:39;21.50;;;9.63;;
71413;SDS011;59226;53.212;5.728;2023-04-09T02:21:05;21.33;;;10.47;;
71413;SDS011;59226;53.212;5.728;2023-04-09T02:23:31;21.20;;;10.52;;
71413;SDS011;59226;53.212;5.728;2023-04-09T02:25:57;23.88;;;10.02;;
71413;SDS011;59226;53.212;5.728;2023-04-09T02:28:22;18.23;;;9.43;;
71413;SDS011;59226;53.212;5.728;2023-04-09T02:30:47;15.53;;;9.07;;
71413;SDS011;59226;53.212;5.728;2023-04-09T02:33:13;24.33;;;10.07;;
71413;SDS011;59226;53.212;5.728;2023-04-09T02:35:38;20.60;;;8.90;;
71413;SDS011;59226;53.212;5.728;2023-04-09T02:38:03;19.17;;;8.50;;
71413;SDS011;59226;53.212;5.728;2023-04-09T02:40:28;20.10;;;8.70;;
71413;SDS011;59226;53.212;5.728;2023-04-09T02:42:54;20.40;;;8.13;;
71413;SDS011;59226;53.212;5.728;2023-04-09T02:45:19;24.17;;;7.83;;
71413;SDS011;59226;53.212;5.728;2023-04-09T02:47:44;17.70;;;7.40;;
71413;SDS011;59226;53.212;5.728;2023-04-09T02:50:10;13.40;;;6.10;;
71413;SDS011;59226;53.212;5.728;2023-04-09T02:52:35;20.00;;;8.77;;
71413;SDS011;59226;53.212;5.728;2023-04-09T02:55:00;20.27;;;8.80;;
71413;SDS011;59226;53.212;5.728;2023-04-09T02:57:25;18.87;;;9.70;;
71413;SDS011;59226;53.212;5.728;2023-04-09T02:59:51;21.07;;;9.63;;
71413;SDS011;59226;53.212;5.728;2023-04-09T03:02:16;24.27;;;8.83;;
71413;SDS011;59226;53.212;5.728;2023-04-09T03:04:41;23.70;;;9.80;;
71413;SDS011;59226;53.212;5.728;2023-04-09T03:07:06;19.57;;;8.10;;
71413;SDS011;59226;53.212;5.728;2023-04-09T03:09:32;26.97;;;9.97;;
71413;SDS011;59226;53.212;5.728;2023-04-09T03:11:57;28.03;;;11.70;;
71413;SDS011;59226;53.212;5.728;2023-04-09T03:14:23;23.83;;;9.67;;
71413;SDS011;59226;53.212;5.728;2023-04-09T03:16:48;24.52;;;9.68;;
71413;SDS011;59226;53.212;5.728;2023-04-09T03:19:13;17.73;;;7.73;;
71413;SDS011;59226;53.212;5.728;2023-04-09T03:21:38;21.03;;;9.37;;
71413;SDS011;59226;53.212;5.728;2023-04-09T03:24:03;26.53;;;10.53;;
71413;SDS011;59226;53.212;5.728;2023-04-09T03:26:29;23.67;;;9.93;;
71413;SDS011;59226;53.212;5.728;2023-04-09T03:29:00;23.75;;;8.70;;
71413;SDS011;59226;53.212;5.728;2023-04-09T03:31:25;24.80;;;10.93;;
71413;SDS011;59226;53.212;5.728;2023-04-09T03:33:50;33.17;;;10.57;;
71413;SDS011;59226;53.212;5.728;2023-04-09T03:36:15;22.73;;;9.73;;
71413;SDS011;59226;53.212;5.728;2023-04-09T03:38:41;18.43;;;7.57;;
71413;SDS011;59226;53.212;5.728;2023-04-09T03:41:06;24.77;;;9.57;;
71413;SDS011;59226;53.212;5.728;2023-04-09T03:43:31;23.77;;;8.73;;
71413;SDS011;59226;53.212;5.728;2023-04-09T03:45:56;28.57;;;10.20;;
71413;SDS011;59226;53.212;5.728;2023-04-09T03:48:21;19.73;;;10.20;;
71413;SDS011;59226;53.212;5.728;2023-04-09T03:50:47;26.50;;;11.60;;
71413;SDS011;59226;53.212;5.728;2023-04-09T03:53:12;20.83;;;8.73;;
71413;SDS011;59226;53.212;5.728;2023-04-09T03:55:37;29.33;;;11.43;;
71413;SDS011;59226;53.212;5.728;2023-04-09T03:58:02;24.97;;;8.97;;
71413;SDS011;59226;53.212;5.728;2023-04-09T04:00:28;23.80;;;9.23;;
71413;SDS011;59226;53.212;5.728;2023-04-09T04:02:53;27.33;;;10.40;;
71413;SDS011;59226;53.212;5.728;2023-04-09T04:05:18;25.50;;;9.90;;
71413;SDS011;59226;53.212;5.728;2023-04-09T04:07:43;24.30;;;8.33;;
71413;SDS011;59226;53.212;5.728;2023-04-09T04:10:09;26.20;;;9.80;;
71413;SDS011;59226;53.212;5.728;2023-04-09T04:12:34;23.08;;;8.88;;
71413;SDS011;59226;53.212;5.728;2023-04-09T04:15:00;21.07;;;9.07;;
71413;SDS011;59226;53.212;5.728;2023-04-09T04:17:25;22.03;;;9.90;;
71413;SDS011;59226;53.212;5.728;2023-04-09T04:19:50;24.67;;;8.83;;
71413;SDS011;59226;53.212;5.728;2023-04-09T04:22:15;32.27;;;10.53;;
71413;SDS011;59226;53.212;5.728;2023-04-09T04:24:40;25.50;;;9.57;;
71413;SDS011;59226;53.212;5.728;2023-04-09T04:27:06;22.10;;;8.23;;
71413;SDS011;59226;53.212;5.728;2023-04-09T04:29:31;24.53;;;9.17;;
71413;SDS011;59226;53.212;5.728;2023-04-09T04:31:56;29.03;;;9.67;;
71413;SDS011;59226;53.212;5.728;2023-04-09T04:34:22;25.70;;;10.30;;
71413;SDS011;59226;53.212;5.728;2023-04-09T04:36:47;19.07;;;8.10;;
71413;SDS011;59226;53.212;5.728;2023-04-09T04:39:12;23.73;;;8.27;;
71413;SDS011;59226;53.212;5.728;2023-04-09T04:41:37;25.47;;;10.80;;
71413;SDS011;59226;53.212;5.728;2023-04-09T04:44:02;28.87;;;9.33;;
71413;SDS011;59226;53.212;5.728;2023-04-09T04:46:28;25.00;;;9.23;;
71413;SDS011;59226;53.212;5.728;2023-04-09T04:48:53;20.73;;;8.70;;
71413;SDS011;59226;53.212;5.728;2023-04-09T04:51:18;25.30;;;10.73;;
71413;SDS011;59226;53.212;5.728;2023-04-09T04:53:43;21.27;;;8.07;;
71413;SDS011;59226;53.212;5.728;2023-04-09T04:56:15;27.97;;;8.70;;
71413;SDS011;59226;53.212;5.728;2023-04-09T04:58:40;24.15;;;11.20;;
71413;SDS011;59226;53.212;5.728;2023-04-09T05:01:06;21.30;;;8.07;;
71413;SDS011;59226;53.212;5.728;2023-04-09T05:03:31;26.00;;;8.00;;
71413;SDS011;59226;53.212;5.728;2023-04-09T05:05:56;17.97;;;8.13;;
71413;SDS011;59226;53.212;5.728;2023-04-09T05:08:21;17.67;;;7.30;;
71413;SDS011;59226;53.212;5.728;2023-04-09T05:10:47;17.30;;;7.47;;
71413;SDS011;59226;53.212;5.728;2023-04-09T05:13:12;17.97;;;6.40;;
71413;SDS011;59226;53.212;5.728;2023-04-09T05:15:37;17.00;;;7.87;;
71413;SDS011;59226;53.212;5.728;2023-04-09T05:18:03;16.80;;;8.02;;
71413;SDS011;59226;53.212;5.728;2023-04-09T05:20:28;17.57;;;7.20;;
71413;SDS011;59226;53.212;5.728;2023-04-09T05:22:53;14.20;;;5.53;;
71413;SDS011;59226;53.212;5.728;2023-04-09T05:25:19;19.67;;;6.93;;
71413;SDS011;59226;53.212;5.728;2023-04-09T05:27:44;14.37;;;5.63;;
71413;SDS011;59226;53.212;5.728;2023-04-09T05:30:09;14.93;;;6.37;;
71413;SDS011;59226;53.212;5.728;2023-04-09T05:32:35;16.58;;;6.88;;
71413;SDS011;59226;53.212;5.728;2023-04-09T05:35:00;16.93;;;7.87;;
71413;SDS011;59226;53.212;5.728;2023-04-09T05:37:25;15.97;;;7.13;;
71413;SDS011;59226;53.212;5.728;2023-04-09T05:39:50;17.07;;;7.23;;
71413;SDS011;59226;53.212;5.728;2023-04-09T05:42:16;16.90;;;6.40;;
71413;SDS011;59226;53.212;5.728;2023-04-09T05:44:41;15.07;;;5.80;;
71413;SDS011;59226;53.212;5.728;2023-04-09T05:47:06;16.93;;;6.97;;
71413;SDS011;59226;53.212;5.728;2023-04-09T05:49:31;20.50;;;6.57;;
71413;SDS011;59226;53.212;5.728;2023-04-09T05:51:57;12.43;;;5.30;;
71413;SDS011;59226;53.212;5.728;2023-04-09T05:54:22;22.43;;;6.23;;
71413;SDS011;59226;53.212;5.728;2023-04-09T05:56:47;20.93;;;7.47;;
71413;SDS011;59226;53.212;5.728;2023-04-09T05:59:12;15.33;;;7.20;;
71413;SDS011;59226;53.212;5.728;2023-04-09T06:01:38;19.53;;;7.03;;
71413;SDS011;59226;53.212;5.728;2023-04-09T06:04:03;17.13;;;6.27;;
71413;SDS011;59226;53.212;5.728;2023-04-09T06:06:28;13.07;;;5.43;;
71413;SDS011;59226;53.212;5.728;2023-04-09T06:08:53;15.17;;;6.53;;
71413;SDS011;59226;53.212;5.728;2023-04-09T06:11:19;14.67;;;6.53;;
71413;SDS011;59226;53.212;5.728;2023-04-09T06:13:45;11.57;;;5.38;;
71413;SDS011;59226;53.212;5.728;2023-04-09T06:16:10;14.07;;;5.60;;
71413;SDS011;59226;53.212;5.728;2023-04-09T06:18:36;15.30;;;6.03;;
71413;SDS011;59226;53.212;5.728;2023-04-09T06:21:04;17.63;;;5.87;;
71413;SDS011;59226;53.212;5.728;2023-04-09T06:23:30;13.85;;;6.43;;
71413;SDS011;59226;53.212;5.728;2023-04-09T06:25:55;14.07;;;5.87;;
71413;SDS011;59226;53.212;5.728;2023-04-09T06:28:21;17.07;;;6.93;;
71413;SDS011;59226;53.212;5.728;2023-04-09T06:30:46;15.47;;;5.17;;
71413;SDS011;59226;53.212;5.728;2023-04-09T06:33:13;13.30;;;5.43;;
71413;SDS011;59226;53.212;5.728;2023-04-09T06:35:38;13.43;;;5.93;;
71413;SDS011;59226;53.212;5.728;2023-04-09T06:38:04;14.53;;;6.33;;
71413;SDS011;59226;53.212;5.728;2023-04-09T06:40:29;16.20;;;5.80;;
71413;SDS011;59226;53.212;5.728;2023-04-09T06:42:54;13.13;;;5.63;;
71413;SDS011;59226;53.212;5.728;2023-04-09T06:45:20;13.73;;;5.43;;
71413;SDS011;59226;53.212;5.728;2023-04-09T06:47:45;16.97;;;5.67;;
71413;SDS011;59226;53.212;5.728;2023-04-09T06:50:10;16.27;;;6.60;;
71413;SDS011;59226;53.212;5.728;2023-04-09T06:52:35;16.00;;;5.67;;
71413;SDS011;59226;53.212;5.728;2023-04-09T06:55:01;15.00;;;6.47;;
71413;SDS011;59226;53.212;5.728;2023-04-09T06:57:26;16.63;;;6.22;;
71413;SDS011;59226;53.212;5.728;2023-04-09T06:59:51;13.70;;;5.40;;
71413;SDS011;59226;53.212;5.728;2023-04-09T07:02:17;17.17;;;5.73;;
71413;SDS011;59226;53.212;5.728;2023-04-09T07:04:42;12.80;;;5.70;;
71413;SDS011;59226;53.212;5.728;2023-04-09T07:07:07;11.80;;;6.17;;
71413;SDS011;59226;53.212;5.728;2023-04-09T07:09:32;16.03;;;7.03;;
71413;SDS011;59226;53.212;5.728;2023-04-09T07:11:58;14.90;;;6.87;;
71413;SDS011;59226;53.212;5.728;2023-04-09T07:14:23;14.13;;;5.60;;
71413;SDS011;59226;53.212;5.728;2023-04-09T07:16:48;14.50;;;5.43;;
71413;SDS011;59226;53.212;5.728;2023-04-09T07:19:13;14.27;;;5.80;;
71413;SDS011;59226;53.212;5.728;2023-04-09T07:21:38;18.70;;;6.00;;
71413;SDS011;59226;53.212;5.728;2023-04-09T07:24:04;11.60;;;5.03;;
71413;SDS011;59226;53.212;5.728;2023-04-09T07:26:29;11.10;;;5.20;;
71413;SDS011;59226;53.212;5.728;2023-04-09T07:28:55;14.73;;;5.93;;
71413;SDS011;59226;53.212;5.728;2023-04-09T07:31:20;13.93;;;6.50;;
71413;SDS011;59226;53.212;5.728;2023-04-09T07:33:45;11.47;;;5.00;;
71413;SDS011;59226;53.212;5.728;2023-04-09T07:36:10;13.17;;;5.70;;
71413;SDS011;59226;53.212;5.728;2023-04-09T07:38:36;16.23;;;6.53;;
71413;SDS011;59226;53.212;5.728;2023-04-09T07:41:01;17.97;;;6.17;;
71413;SDS011;59226;53.212;5.728;2023-04-09T07:43:26;15.20;;;6.83;;
71413;SDS011;59226;53.212;5.728;2023-04-09T07:45:51;17.43;;;6.07;;
71413;SDS011;59226;53.212;5.728;2023-04-09T07:48:17;15.03;;;5.67;;
71413;SDS011;59226;53.212;5.728;2023-04-09T07:50:42;13.60;;;6.23;;
71413;SDS011;59226;53.212;5.728;2023-04-09T07:53:09;15.18;;;6.40;;
71413;SDS011;59226;53.212;5.728;2023-04-09T07:55:34;15.25;;;6.53;;
71413;SDS011;59226;53.212;5.728;2023-04-09T07:57:59;18.97;;;6.77;;
71413;SDS011;59226;53.212;5.728;2023-04-09T08:00:25;16.97;;;6.40;;
71413;SDS011;59226;53.212;5.728;2023-04-09T08:02:50;18.03;;;7.50;;
71413;SDS011;59226;53.212;5.728;2023-04-09T08:05:15;12.40;;;5.03;;
71413;SDS011;59226;53.212;5.728;2023-04-09T08:07:40;12.17;;;5.83;;
71413;SDS011;59226;53.212;5.728;2023-04-09T08:10:06;13.87;;;5.47;;
71413;SDS011;59226;53.212;5.728;2023-04-09T08:12:31;15.63;;;7.00;;
71413;SDS011;59226;53.212;5.728;2023-04-09T08:14:56;15.10;;;5.87;;
71413;SDS011;59226;53.212;5.728;2023-04-09T08:17:22;18.33;;;5.57;;
71413;SDS011;59226;53.212;5.728;2023-04-09T08:19:47;16.23;;;6.20;;
71413;SDS011;59226;53.212;5.728;2023-04-09T08:22:13;16.40;;;6.70;;
71413;SDS011;59226;53.212;5.728;2023-04-09T08:24:39;14.38;;;6.10;;
71413;SDS011;59226;53.212;5.728;2023-04-09T08:27:07;15.05;;;6.13;;
71413;SDS011;59226;53.212;5.728;2023-04-09T08:29:32;21.40;;;7.57;;
71413;SDS011;59226;53.212;5.728;2023-04-09T08:31:58;16.77;;;7.72;;
71413;SDS011;59226;53.212;5.728;2023-04-09T08:34:23;15.03;;;6.53;;
71413;SDS011;59226;53.212;5.728;2023-04-09T08:36:48;20.70;;;7.10;;
71413;SDS011;59226;53.212;5.728;2023-04-09T08:39:14;16.13;;;5.90;;
71413;SDS011;59226;53.212;5.728;2023-04-09T08:41:40;15.25;;;5.95;;
71413;SDS011;59226;53.212;5.728;2023-04-09T08:44:07;16.10;;;7.23;;
71413;SDS011;59226;53.212;5.728;2023-04-09T08:46:34;18.07;;;7.17;;
71413;SDS011;59226;53.212;5.728;2023-04-09T08:49:00;16.05;;;6.22;;
71413;SDS011;59226;53.212;5.728;2023-04-09T08:51:25;14.27;;;7.18;;
71413;SDS011;59226;53.212;5.728;2023-04-09T08:53:56;14.93;;;5.97;;
71413;SDS011;59226;53.212;5.728;2023-04-09T08:56:22;16.23;;;6.50;;
71413;SDS011;59226;53.212;5.728;2023-04-09T08:58:47;17.02;;;7.03;;
71413;SDS011;59226;53.212;5.728;2023-04-09T09:01:23;17.40;;;7.80;;
71413;SDS011;59226;53.212;5.728;2023-04-09T09:03:56;18.35;;;7.05;;
71413;SDS011;59226;53.212;5.728;2023-04-09T09:06:28;13.55;;;5.95;;
71413;SDS011;59226;53.212;5.728;2023-04-09T09:11:25;13.65;;;5.60;;
71413;SDS011;59226;53.212;5.728;2023-04-09T09:14:36;17.73;;;7.50;;
71413;SDS011;59226;53.212;5.728;2023-04-09T09:16:43;20.42;;;6.93;;
71413;SDS011;59226;53.212;5.728;2023-04-09T09:19:28;17.38;;;7.68;;
71413;SDS011;59226;53.212;5.728;2023-04-09T09:21:58;19.83;;;6.73;;
71413;SDS011;59226;53.212;5.728;2023-04-09T09:24:23;19.92;;;7.50;;
71413;SDS011;59226;53.212;5.728;2023-04-09T09:26:49;18.47;;;7.40;;
71413;SDS011;59226;53.212;5.728;2023-04-09T09:29:14;19.17;;;7.00;;
71413;SDS011;59226;53.212;5.728;2023-04-09T09:31:49;18.57;;;8.07;;
71413;SDS011;59226;53.212;5.728;2023-04-09T09:34:15;20.95;;;7.10;;
71413;SDS011;59226;53.212;5.728;2023-04-09T09:36:43;16.42;;;6.75;;
71413;SDS011;59226;53.212;5.728;2023-04-09T09:39:09;18.25;;;7.35;;
71413;SDS011;59226;53.212;5.728;2023-04-09T09:41:34;12.10;;;5.47;;
71413;SDS011;59226;53.212;5.728;2023-04-09T09:44:00;16.77;;;6.87;;
71413;SDS011;59226;53.212;5.728;2023-04-09T09:46:25;18.37;;;7.33;;
71413;SDS011;59226;53.212;5.728;2023-04-09T09:48:51;22.63;;;7.82;;
71413;SDS011;59226;53.212;5.728;2023-04-09T09:51:16;21.10;;;7.47;;
71413;SDS011;59226;53.212;5.728;2023-04-09T09:53:45;18.03;;;6.23;;
71413;SDS011;59226;53.212;5.728;2023-04-09T09:56:15;18.85;;;7.32;;
71413;SDS011;59226;53.212;5.728;2023-04-09T09:58:44;20.05;;;7.15;;
71413;SDS011;59226;53.212;5.728;2023-04-09T10:01:13;17.77;;;7.45;;
71413;SDS011;59226;53.212;5.728;2023-04-09T10:03:39;17.05;;;6.82;;
71413;SDS011;59226;53.212;5.728;2023-04-09T10:06:06;17.37;;;6.53;;
71413;SDS011;59226;53.212;5.728;2023-04-09T10:08:32;19.55;;;7.95;;
71413;SDS011;59226;53.212;5.728;2023-04-09T10:10:58;20.35;;;8.65;;
71413;SDS011;59226;53.212;5.728;2023-04-09T10:13:25;13.83;;;6.17;;
71413;SDS011;59226;53.212;5.728;2023-04-09T10:15:53;17.60;;;7.50;;
71413;SDS011;59226;53.212;5.728;2023-04-09T10:18:19;16.50;;;7.80;;
71413;SDS011;59226;53.212;5.728;2023-04-09T10:20:47;20.70;;;7.85;;
71413;SDS011;59226;53.212;5.728;2023-04-09T10:23:14;24.25;;;7.45;;
71413;SDS011;59226;53.212;5.728;2023-04-09T10:25:43;17.15;;;7.18;;
71413;SDS011;59226;53.212;5.728;2023-04-09T10:28:17;17.47;;;7.83;;
71413;SDS011;59226;53.212;5.728;2023-04-09T10:30:42;16.38;;;6.93;;
71413;SDS011;59226;53.212;5.728;2023-04-09T10:33:14;18.40;;;7.93;;
71413;SDS011;59226;53.212;5.728;2023-04-09T10:35:40;18.20;;;7.93;;
71413;SDS011;59226;53.212;5.728;2023-04-09T10:38:06;18.90;;;6.93;;
71413;SDS011;59226;53.212;5.728;2023-04-09T10:40:32;13.07;;;5.68;;
71413;SDS011;59226;53.212;5.728;2023-04-09T10:42:57;17.87;;;7.57;;
71413;SDS011;59226;53.212;5.728;2023-04-09T10:45:23;21.13;;;7.40;;
71413;SDS011;59226;53.212;5.728;2023-04-09T10:47:50;19.67;;;7.20;;
71413;SDS011;59226;53.212;5.728;2023-04-09T10:52:41;17.20;;;6.50;;
71413;SDS011;59226;53.212;5.728;2023-04-09T10:55:06;18.77;;;6.43;;
71413;SDS011;59226;53.212;5.728;2023-04-09T10:57:32;15.03;;;6.03;;
71413;SDS011;59226;53.212;5.728;2023-04-09T10:59:57;17.37;;;6.97;;
71413;SDS011;59226;53.212;5.728;2023-04-09T11:02:44;16.57;;;6.87;;
71413;SDS011;59226;53.212;5.728;2023-04-09T11:08:00;17.33;;;7.65;;
71413;SDS011;59226;53.212;5.728;2023-04-09T11:10:27;17.95;;;6.82;;
71413;SDS011;59226;53.212;5.728;2023-04-09T11:12:52;15.63;;;6.93;;
71413;SDS011;59226;53.212;5.728;2023-04-09T11:15:18;13.07;;;5.35;;
71413;SDS011;59226;53.212;5.728;2023-04-09T11:17:44;20.33;;;7.67;;
71413;SDS011;59226;53.212;5.728;2023-04-09T11:20:10;12.73;;;5.78;;
71413;SDS011;59226;53.212;5.728;2023-04-09T11:22:35;22.83;;;6.57;;
71413;SDS011;59226;53.212;5.728;2023-04-09T11:25:00;16.33;;;7.17;;
71413;SDS011;59226;53.212;5.728;2023-04-09T11:27:26;18.30;;;6.87;;
71413;SDS011;59226;53.212;5.728;2023-04-09T11:29:54;15.63;;;7.10;;
71413;SDS011;59226;53.212;5.728;2023-04-09T11:32:19;13.35;;;5.72;;
71413;SDS011;59226;53.212;5.728;2023-04-09T11:34:45;15.20;;;6.17;;
71413;SDS011;59226;53.212;5.728;2023-04-09T11:37:13;16.10;;;6.27;;
71413;SDS011;59226;53.212;5.728;2023-04-09T11:39:38;14.40;;;5.75;;
71413;SDS011;59226;53.212;5.728;2023-04-09T11:42:04;11.98;;;5.97;;
71413;SDS011;59226;53.212;5.728;2023-04-09T11:44:30;18.03;;;6.60;;
71413;SDS011;59226;53.212;5.728;2023-04-09T11:46:55;13.83;;;5.97;;
71413;SDS011;59226;53.212;5.728;2023-04-09T11:49:21;15.90;;;6.80;;
71413;SDS011;59226;53.212;5.728;2023-04-09T11:51:46;14.77;;;7.30;;
71413;SDS011;59226;53.212;5.728;2023-04-09T11:54:12;14.60;;;6.13;;
71413;SDS011;59226;53.212;5.728;2023-04-09T11:56:37;16.55;;;7.40;;
71413;SDS011;59226;53.212;5.728;2023-04-09T11:59:03;14.20;;;6.40;;
71413;SDS011;59226;53.212;5.728;2023-04-09T12:01:31;14.43;;;6.73;;
71413;SDS011;59226;53.212;5.728;2023-04-09T12:03:57;14.38;;;6.40;;
71413;SDS011;59226;53.212;5.728;2023-04-09T12:06:22;17.27;;;6.70;;
71413;SDS011;59226;53.212;5.728;2023-04-09T12:08:51;16.00;;;7.38;;
71413;SDS011;59226;53.212;5.728;2023-04-09T12:11:17;15.40;;;6.88;;
71413;SDS011;59226;53.212;5.728;2023-04-09T12:13:42;16.40;;;6.53;;
71413;SDS011;59226;53.212;5.728;2023-04-09T12:16:08;14.35;;;5.95;;
71413;SDS011;59226;53.212;5.728;2023-04-09T12:18:37;14.45;;;6.45;;
71413;SDS011;59226;53.212;5.728;2023-04-09T12:21:02;13.83;;;6.37;;
71413;SDS011;59226;53.212;5.728;2023-04-09T12:23:28;14.85;;;6.32;;
71413;SDS011;59226;53.212;5.728;2023-04-09T12:25:55;14.57;;;6.55;;
71413;SDS011;59226;53.212;5.728;2023-04-09T12:28:23;17.13;;;7.17;;
71413;SDS011;59226;53.212;5.728;2023-04-09T12:30:49;18.20;;;6.30;;
71413;SDS011;59226;53.212;5.728;2023-04-09T12:33:14;19.23;;;8.05;;
71413;SDS011;59226;53.212;5.728;2023-04-09T12:35:41;13.93;;;6.13;;
71413;SDS011;59226;53.212;5.728;2023-04-09T12:38:06;16.67;;;6.63;;
71413;SDS011;59226;53.212;5.728;2023-04-09T12:40:31;12.63;;;5.87;;
71413;SDS011;59226;53.212;5.728;2023-04-09T12:42:57;17.53;;;5.97;;
71413;SDS011;59226;53.212;5.728;2023-04-09T12:45:22;17.03;;;6.93;;
71413;SDS011;59226;53.212;5.728;2023-04-09T12:47:47;15.10;;;6.17;;
71413;SDS011;59226;53.212;5.728;2023-04-09T12:50:13;16.50;;;5.93;;
71413;SDS011;59226;53.212;5.728;2023-04-09T12:52:39;13.80;;;6.37;;
71413;SDS011;59226;53.212;5.728;2023-04-09T12:55:04;14.65;;;6.55;;
71413;SDS011;59226;53.212;5.728;2023-04-09T12:57:30;12.30;;;5.70;;
71413;SDS011;59226;53.212;5.728;2023-04-09T12:59:55;16.37;;;6.47;;
71413;SDS011;59226;53.212;5.728;2023-04-09T13:02:21;13.90;;;6.30;;
71413;SDS011;59226;53.212;5.728;2023-04-09T13:04:46;14.65;;;6.05;;
71413;SDS011;59226;53.212;5.728;2023-04-09T13:07:12;12.07;;;5.63;;
71413;SDS011;59226;53.212;5.728;2023-04-09T13:09:39;13.02;;;5.65;;
71413;SDS011;59226;53.212;5.728;2023-04-09T13:12:05;14.98;;;5.70;;
71413;SDS011;59226;53.212;5.728;2023-04-09T13:14:30;12.90;;;4.77;;
71413;SDS011;59226;53.212;5.728;2023-04-09T13:16:56;13.27;;;5.30;;
71413;SDS011;59226;53.212;5.728;2023-04-09T13:19:21;16.50;;;6.27;;
71413;SDS011;59226;53.212;5.728;2023-04-09T13:21:46;12.03;;;4.87;;
71413;SDS011;59226;53.212;5.728;2023-04-09T13:24:11;12.70;;;5.67;;
71413;SDS011;59226;53.212;5.728;2023-04-09T13:26:36;13.23;;;6.63;;
71413;SDS011;59226;53.212;5.728;2023-04-09T13:29:02;13.33;;;5.87;;
71413;SDS011;59226;53.212;5.728;2023-04-09T13:31:28;14.15;;;5.50;;
71413;SDS011;59226;53.212;5.728;2023-04-09T13:33:53;14.30;;;6.13;;
71413;SDS011;59226;53.212;5.728;2023-04-09T13:36:18;16.90;;;5.63;;
71413;SDS011;59226;53.212;5.728;2023-04-09T13:38:44;12.10;;;5.27;;
71413;SDS011;59226;53.212;5.728;2023-04-09T13:41:09;14.30;;;6.37;;
71413;SDS011;59226;53.212;5.728;2023-04-09T13:43:34;12.87;;;5.77;;
71413;SDS011;59226;53.212;5.728;2023-04-09T13:45:59;10.37;;;4.67;;
71413;SDS011;59226;53.212;5.728;2023-04-09T13:48:25;13.87;;;6.00;;
71413;SDS011;59226;53.212;5.728;2023-04-09T13:50:50;10.47;;;5.40;;
71413;SDS011;59226;53.212;5.728;2023-04-09T13:53:15;13.73;;;7.00;;
71413;SDS011;59226;53.212;5.728;2023-04-09T13:55:41;11.10;;;5.10;;
71413;SDS011;59226;53.212;5.728;2023-04-09T13:58:06;13.30;;;5.33;;
71413;SDS011;59226;53.212;5.728;2023-04-09T14:00:31;13.00;;;5.20;;
71413;SDS011;59226;53.212;5.728;2023-04-09T14:02:57;11.57;;;5.33;;
71413;SDS011;59226;53.212;5.728;2023-04-09T14:05:22;14.52;;;5.97;;
71413;SDS011;59226;53.212;5.728;2023-04-09T14:07:47;13.57;;;5.77;;
71413;SDS011;59226;53.212;5.728;2023-04-09T14:10:12;15.17;;;5.87;;
71413;SDS011;59226;53.212;5.728;2023-04-09T14:12:38;9.80;;;5.40;;
71413;SDS011;59226;53.212;5.728;2023-04-09T14:15:03;11.20;;;4.87;;
71413;SDS011;59226;53.212;5.728;2023-04-09T14:17:28;11.87;;;5.13;;
71413;SDS011;59226;53.212;5.728;2023-04-09T14:19:54;10.97;;;5.17;;
71413;SDS011;59226;53.212;5.728;2023-04-09T14:22:19;15.30;;;5.37;;
71413;SDS011;59226;53.212;5.728;2023-04-09T14:24:44;13.47;;;6.07;;
71413;SDS011;59226;53.212;5.728;2023-04-09T14:27:09;12.30;;;4.90;;
71413;SDS011;59226;53.212;5.728;2023-04-09T14:29:35;11.20;;;5.33;;
71413;SDS011;59226;53.212;5.728;2023-04-09T14:32:00;12.80;;;5.43;;
71413;SDS011;59226;53.212;5.728;2023-04-09T14:34:26;12.47;;;6.17;;
71413;SDS011;59226;53.212;5.728;2023-04-09T14:36:51;11.73;;;5.57;;
71413;SDS011;59226;53.212;5.728;2023-04-09T14:39:16;13.87;;;5.80;;